Virtual Norwegian is not affiliated with Norwegian Air Shuttle in any way.
If you are looking for the real "Norwegian", or you wish to book Norwegian flights, please visit Norwegian.com


We use cookies to ensure you get the best experience on our website.   ACCEPT

SARI - IGR - Iguazu Falls (Cataratas Del Iguazu)

General Info Alternate Airport
ICAO: SARI Elevation: 916 ft ICAO: SBCT
IATA: IGR Country: Argentina IATA: CWB
City: Iguazu Falls Charts: Log in to view charts City: Curitiba
Name: Cataratas Del Iguazu Hub: No Name Afonso Pena
General Info
ICAO: SARI
IATA: IGR
City: Iguazu Falls
Name: Cataratas Del Iguazu
Elevation: 916 ft
Country: Argentina
Charts: Log in to view charts
Hub: No
 
Alternate Airport
ICAO: SBCT
IATA: CWB
City: Curitiba
Name: Afonso Pena

Weather
240900Z 07004KT CAVOK 11/09 Q1020
Weather
240900Z 07004KT CAVOK 11/09 Q1020

NOTAMs
NOTAMs currently unavailable.
NOTAMs
NOTAMs currently unavailable

Route map
Airport
Airport (hub)